createdAt,value
2019-04-21T00:00:11.233Z,13.40
2019-04-21T00:02:50.367Z,8.43
2019-04-21T00:05:53.261Z,8.30
2019-04-21T00:08:38.954Z,7.43
2019-04-21T00:11:18.573Z,6.93
2019-04-21T00:13:52.723Z,7.17
2019-04-21T00:16:32.082Z,6.50
2019-04-21T00:19:17.390Z,6.50
2019-04-21T00:21:55.428Z,7.30
2019-04-21T00:24:55.276Z,7.50
2019-04-21T00:27:46.406Z,10.30
2019-04-21T00:30:43.057Z,9.70
2019-04-21T00:33:17.576Z,7.00
2019-04-21T00:35:59.834Z,7.77
2019-04-21T00:39:06.664Z,9.07
2019-04-21T00:41:36.596Z,6.97
2019-04-21T00:44:13.132Z,8.57
2019-04-21T00:46:55.784Z,8.37
2019-04-21T00:49:42.727Z,8.27
2019-04-21T00:55:38.702Z,8.40
2019-04-21T00:58:17.555Z,7.60
2019-04-21T01:01:00.496Z,7.70
2019-04-21T01:03:46.272Z,7.53
2019-04-21T01:06:26.846Z,10.23
2019-04-21T01:09:03.766Z,8.17
2019-04-21T01:11:49.295Z,7.50
2019-04-21T01:14:37.290Z,7.73
2019-04-21T01:17:17.878Z,7.73
2019-04-21T01:19:51.359Z,7.07
2019-04-21T01:22:18.433Z,6.13
2019-04-21T01:25:09.071Z,7.83
2019-04-21T01:27:59.351Z,6.70
2019-04-21T01:30:44.894Z,6.80
2019-04-21T01:33:36.253Z,11.63
2019-04-21T01:36:11.035Z,9.40
2019-04-21T01:38:58.314Z,6.97
2019-04-21T01:41:39.116Z,6.90
2019-04-21T01:44:25.329Z,7.80
2019-04-21T01:46:52.027Z,8.27
2019-04-21T01:49:34.886Z,8.40
2019-04-21T01:55:12.354Z,7.77
2019-04-21T02:01:10.190Z,11.90
2019-04-21T02:03:57.004Z,7.80
2019-04-21T02:06:36.268Z,6.83
2019-04-21T02:09:14.919Z,8.77
2019-04-21T02:12:02.541Z,8.20
2019-04-21T02:14:52.025Z,8.23
2019-04-21T02:17:31.062Z,7.93
2019-04-21T02:20:05.387Z,10.37
2019-04-21T02:23:15.529Z,7.70
2019-04-21T02:25:26.043Z,7.73
2019-04-21T02:28:42.484Z,9.50
2019-04-21T02:37:17.183Z,8.90
2019-04-21T02:39:51.364Z,8.30
2019-04-21T02:42:20.091Z,9.57
2019-04-21T02:45:09.389Z,7.60
2019-04-21T02:47:59.112Z,7.27
2019-04-21T02:50:33.959Z,9.40
2019-04-21T02:53:20.434Z,7.53
2019-04-21T03:02:25.676Z,7.10
2019-04-21T03:08:09.855Z,7.47
2019-04-21T03:10:45.575Z,7.30
2019-04-21T03:13:33.583Z,7.00
2019-04-21T03:16:23.451Z,8.37
2019-04-21T03:18:50.792Z,6.93
2019-04-21T03:21:29.003Z,6.50
2019-04-21T03:24:43.021Z,7.30
2019-04-21T03:27:10.381Z,7.40
2019-04-21T03:32:55.385Z,10.40
2019-04-21T03:37:44.675Z,6.80
2019-04-21T03:40:26.168Z,7.67
2019-04-21T03:43:14.482Z,6.47
2019-04-21T03:45:49.139Z,5.63
2019-04-21T03:54:00.104Z,6.37
2019-04-21T03:56:59.142Z,5.50
2019-04-21T03:59:30.115Z,6.83
2019-04-21T04:05:31.749Z,7.20
2019-04-21T04:08:12.952Z,6.17
2019-04-21T04:10:58.708Z,6.53
2019-04-21T04:13:37.549Z,13.97
2019-04-21T04:16:11.943Z,5.70
2019-04-21T04:21:39.529Z,6.10
2019-04-21T04:24:24.427Z,7.03
2019-04-21T04:29:50.296Z,8.40
2019-04-21T04:32:46.880Z,6.43
2019-04-21T04:44:03.241Z,6.00
2019-04-21T04:46:47.538Z,5.90
2019-04-21T04:49:39.345Z,6.23
2019-04-21T04:52:19.563Z,6.43
2019-04-21T04:57:49.166Z,6.80
2019-04-21T05:00:25.838Z,5.53
2019-04-21T05:02:55.985Z,6.57
2019-04-21T05:05:38.457Z,6.63
2019-04-21T05:08:34.433Z,9.50
2019-04-21T05:11:24.007Z,6.33
2019-04-21T05:16:44.652Z,11.80
2019-04-21T05:21:44.167Z,8.97
2019-04-21T05:24:31.251Z,9.23
2019-04-21T05:27:08.926Z,6.90
2019-04-21T05:29:59.971Z,11.10
2019-04-21T05:32:45.177Z,7.97
2019-04-21T05:35:32.318Z,7.70
2019-04-21T05:38:10.232Z,6.83
2019-04-21T05:40:55.169Z,12.70
2019-04-21T05:43:54.574Z,10.70
2019-04-21T05:46:49.578Z,7.10
2019-04-21T05:52:30.679Z,7.30
2019-04-21T05:55:31.779Z,7.67
2019-04-21T05:58:08.575Z,8.63
2019-04-21T06:04:34.388Z,8.07
2019-04-21T06:07:13.299Z,8.97
2019-04-21T06:09:55.447Z,8.70
2019-04-21T06:12:50.347Z,8.87
2019-04-21T06:15:39.510Z,10.73
2019-04-21T06:18:27.135Z,9.73
2019-04-21T06:21:30.242Z,11.23
2019-04-21T06:24:02.447Z,12.70
2019-04-21T06:29:46.745Z,14.10
2019-04-21T06:35:48.325Z,15.30
2019-04-21T06:38:21.384Z,15.47
2019-04-21T06:41:05.029Z,15.53
2019-04-21T06:43:48.186Z,19.20
2019-04-21T06:46:31.593Z,22.00
2019-04-21T06:49:24.179Z,20.67
2019-04-21T06:51:46.857Z,18.53
2019-04-21T06:54:33.929Z,21.07
2019-04-21T06:57:18.131Z,20.77
2019-04-21T06:59:55.524Z,20.13
2019-04-21T07:03:11.067Z,19.07
2019-04-21T07:05:35.807Z,15.67
2019-04-21T07:08:29.369Z,19.57
2019-04-21T07:10:56.649Z,17.00
2019-04-21T07:13:41.596Z,16.47
2019-04-21T07:16:29.961Z,17.43
2019-04-21T07:19:17.518Z,21.07
2019-04-21T07:21:45.513Z,17.73
2019-04-21T07:24:31.933Z,19.70
2019-04-21T07:27:16.173Z,23.37
2019-04-21T07:29:59.657Z,18.43
2019-04-21T07:32:40.069Z,20.53
2019-04-21T07:35:22.271Z,19.40
2019-04-21T07:38:02.992Z,17.13
2019-04-21T07:40:38.863Z,14.77
2019-04-21T07:43:24.662Z,15.70
2019-04-21T07:46:04.213Z,17.00
2019-04-21T07:48:58.256Z,17.10
2019-04-21T07:54:44.447Z,16.83
2019-04-21T07:57:15.562Z,16.10
2019-04-21T08:00:15.006Z,16.30
2019-04-21T08:03:05.135Z,15.13
2019-04-21T08:05:26.766Z,14.97
2019-04-21T08:08:12.036Z,15.30
2019-04-21T08:10:53.214Z,15.30
2019-04-21T08:13:39.902Z,15.60
2019-04-21T08:16:20.387Z,16.47
2019-04-21T08:18:58.075Z,16.93
2019-04-21T08:21:51.660Z,18.37
2019-04-21T08:24:31.179Z,14.50
2019-04-21T08:27:11.991Z,15.70
2019-04-21T08:29:51.629Z,13.20
2019-04-21T08:32:46.194Z,16.00
2019-04-21T08:38:02.130Z,14.43
2019-04-21T08:40:40.752Z,17.67
2019-04-21T08:43:35.533Z,15.50
2019-04-21T08:46:08.208Z,14.37
2019-04-21T08:48:55.413Z,14.43
2019-04-21T08:51:33.320Z,14.10
2019-04-21T08:54:21.847Z,11.90
2019-04-21T08:57:25.719Z,19.20
2019-04-21T09:03:06.690Z,10.50
2019-04-21T09:05:52.614Z,10.93
2019-04-21T09:08:33.224Z,11.60
2019-04-21T09:11:13.059Z,11.17
2019-04-21T09:13:54.761Z,11.47
2019-04-21T09:16:35.479Z,12.30
2019-04-21T09:19:33.786Z,11.23
2019-04-21T09:22:07.130Z,11.00
2019-04-21T09:24:46.826Z,11.20
2019-04-21T09:27:27.018Z,12.33
2019-04-21T09:29:57.597Z,11.90
2019-04-21T09:32:37.082Z,10.60
2019-04-21T09:35:20.458Z,12.60
2019-04-21T09:38:13.274Z,11.97
2019-04-21T09:40:49.031Z,13.50
2019-04-21T09:43:34.308Z,14.63
2019-04-21T09:46:10.057Z,17.20
2019-04-21T09:48:57.241Z,13.30
2019-04-21T09:51:34.590Z,14.47
2019-04-21T09:54:23.082Z,13.57
2019-04-21T09:57:03.286Z,12.87
2019-04-21T09:59:43.574Z,14.47
2019-04-21T10:02:35.628Z,13.83
2019-04-21T10:05:05.444Z,12.70
2019-04-21T10:07:46.474Z,12.90
2019-04-21T10:10:27.630Z,13.17
2019-04-21T10:13:09.035Z,13.23
2019-04-21T10:18:50.381Z,21.23
2019-04-21T10:21:31.910Z,15.00
2019-04-21T10:24:12.793Z,11.20
2019-04-21T10:26:53.500Z,14.10
2019-04-21T10:29:35.820Z,13.30
2019-04-21T10:32:21.305Z,12.23
2019-04-21T10:35:01.133Z,10.83
2019-04-21T10:37:53.683Z,11.60
2019-04-21T10:40:25.519Z,12.90
2019-04-21T10:43:09.971Z,11.30
2019-04-21T10:45:50.627Z,12.60
2019-04-21T10:48:34.367Z,13.10
2019-04-21T10:51:14.872Z,17.17
2019-04-21T10:53:55.989Z,12.17
2019-04-21T10:56:42.405Z,13.27
2019-04-21T10:59:20.538Z,13.17
2019-04-21T11:02:04.882Z,10.80
2019-04-21T11:04:46.895Z,12.37
2019-04-21T11:08:04.867Z,10.67
2019-04-21T11:10:29.788Z,12.57
2019-04-21T11:13:12.444Z,12.30
2019-04-21T11:15:55.078Z,11.50
2019-04-21T11:18:36.218Z,14.37
2019-04-21T11:21:17.036Z,10.47
2019-04-21T11:23:58.421Z,11.03
2019-04-21T11:26:40.108Z,11.27
2019-04-21T11:29:21.306Z,11.57
2019-04-21T11:32:03.027Z,14.33
2019-04-21T11:34:43.706Z,12.77
2019-04-21T11:37:28.617Z,11.37
2019-04-21T11:40:13.997Z,15.60
2019-04-21T11:42:51.607Z,12.00
2019-04-21T11:45:32.853Z,12.07
2019-04-21T11:48:18.532Z,16.73
2019-04-21T11:50:59.423Z,12.73
2019-04-21T11:53:41.149Z,11.50
2019-04-21T11:56:22.984Z,9.87
2019-04-21T11:59:05.741Z,12.30
2019-04-21T12:01:47.621Z,10.00
2019-04-21T12:04:29.558Z,10.70
2019-04-21T12:07:11.364Z,10.40
2019-04-21T12:09:53.358Z,11.07
2019-04-21T12:12:35.083Z,10.00
2019-04-21T12:15:16.721Z,8.80
2019-04-21T12:17:57.932Z,9.77
2019-04-21T12:20:39.718Z,9.23
2019-04-21T12:23:20.792Z,10.33
2019-04-21T12:26:01.588Z,10.40
2019-04-21T12:28:35.976Z,8.50
2019-04-21T12:31:43.493Z,11.37
2019-04-21T12:34:25.866Z,14.63
2019-04-21T12:37:08.524Z,9.00
2019-04-21T12:39:50.559Z,7.47
2019-04-21T12:42:32.433Z,12.53
2019-04-21T12:45:13.565Z,7.63
2019-04-21T12:47:55.757Z,12.17
2019-04-21T12:50:36.269Z,8.83
2019-04-21T12:53:17.912Z,8.97
2019-04-21T12:56:00.061Z,11.80
2019-04-21T12:58:39.585Z,7.37
2019-04-21T13:01:27.948Z,7.30
2019-04-21T13:04:17.637Z,7.60
2019-04-21T13:07:06.106Z,9.03
2019-04-21T13:09:54.597Z,9.10
2019-04-21T13:12:44.114Z,8.40
2019-04-21T13:15:33.536Z,11.63
2019-04-21T13:18:22.704Z,7.93
2019-04-21T13:21:12.020Z,10.30
2019-04-21T13:24:01.131Z,8.33
2019-04-21T13:26:55.585Z,8.37
2019-04-21T13:29:38.912Z,7.23
2019-04-21T13:32:26.963Z,8.47
2019-04-21T13:35:08.533Z,7.73
2019-04-21T13:37:50.620Z,9.90
2019-04-21T13:41:05.413Z,7.63
2019-04-21T13:43:35.046Z,7.33
2019-04-21T13:46:15.705Z,6.90
2019-04-21T13:48:56.386Z,7.13
2019-04-21T13:51:38.189Z,7.90
2019-04-21T13:54:19.892Z,10.20
2019-04-21T13:57:02.680Z,9.83
2019-04-21T13:59:44.503Z,7.67
2019-04-21T14:02:26.553Z,7.00
2019-04-21T14:05:11.469Z,9.30
2019-04-21T14:07:50.469Z,7.20
2019-04-21T14:10:31.472Z,7.10
2019-04-21T14:13:12.666Z,9.93
2019-04-21T14:15:53.847Z,6.37
2019-04-21T14:18:36.233Z,10.03
2019-04-21T14:21:17.372Z,8.90
2019-04-21T14:23:59.505Z,8.17
2019-04-21T14:26:40.419Z,14.30
2019-04-21T14:29:21.759Z,8.43
2019-04-21T14:32:04.260Z,7.00
2019-04-21T14:34:48.433Z,7.00
2019-04-21T14:37:28.701Z,6.83
2019-04-21T14:40:15.524Z,7.30
2019-04-21T14:42:53.991Z,8.00
2019-04-21T14:45:54.724Z,8.23
2019-04-21T14:48:55.085Z,8.70
2019-04-21T14:52:03.149Z,7.80
2019-04-21T14:54:56.337Z,7.27
2019-04-21T14:57:45.193Z,7.20
2019-04-21T15:04:01.955Z,6.30
2019-04-21T15:06:51.615Z,7.07
2019-04-21T15:09:42.549Z,7.63
2019-04-21T15:12:30.010Z,7.03
2019-04-21T15:15:20.142Z,7.10
2019-04-21T15:18:10.416Z,6.90
2019-04-21T15:20:59.387Z,7.60
2019-04-21T15:23:48.772Z,8.47
2019-04-21T15:26:38.064Z,10.60
2019-04-21T15:29:26.903Z,6.60
2019-04-21T15:32:16.800Z,7.30
2019-04-21T15:34:58.290Z,7.13
2019-04-21T15:37:39.898Z,8.30
2019-04-21T15:40:31.476Z,7.77
2019-04-21T15:43:04.388Z,6.93
2019-04-21T15:45:46.685Z,6.50
2019-04-21T15:48:28.812Z,6.60
2019-04-21T15:51:11.054Z,6.17
2019-04-21T15:53:52.225Z,5.47
2019-04-21T15:56:53.138Z,6.57
2019-04-21T15:59:54.921Z,5.53
2019-04-21T16:05:35.380Z,17.17
2019-04-21T16:08:16.417Z,6.20
2019-04-21T16:11:00.757Z,5.17
2019-04-21T16:13:39.734Z,5.83
2019-04-21T16:16:20.424Z,10.47
2019-04-21T16:19:00.885Z,16.97
2019-04-21T16:21:44.369Z,9.67
2019-04-21T16:24:25.309Z,5.80
2019-04-21T16:27:08.448Z,5.30
2019-04-21T16:29:49.962Z,4.70
2019-04-21T16:32:32.179Z,4.70
2019-04-21T16:35:14.945Z,4.27
2019-04-21T16:37:58.734Z,4.93
2019-04-21T16:40:46.821Z,4.87
2019-04-21T16:43:22.807Z,11.43
2019-04-21T16:46:04.662Z,4.80
2019-04-21T16:48:46.039Z,4.60
2019-04-21T16:51:26.616Z,4.87
2019-04-21T17:00:38.814Z,5.20
2019-04-21T17:03:12.466Z,5.73
2019-04-21T17:05:54.240Z,5.17
2019-04-21T17:08:36.700Z,4.90
2019-04-21T17:14:00.716Z,8.70
2019-04-21T17:16:31.916Z,5.00
2019-04-21T17:17:02.803Z,5.90
2019-04-21T17:19:29.213Z,4.43
2019-04-21T17:22:07.782Z,7.93
2019-04-21T17:24:48.917Z,5.57
2019-04-21T17:27:29.377Z,5.67
2019-04-21T17:30:10.577Z,5.97
2019-04-21T17:32:53.764Z,6.77
2019-04-21T17:35:35.253Z,6.90
2019-04-21T17:38:16.384Z,5.60
2019-04-21T17:41:09.294Z,9.80
2019-04-21T17:43:41.527Z,9.83
2019-04-21T17:46:32.026Z,6.03
2019-04-21T17:49:07.001Z,6.90
2019-04-21T17:52:09.841Z,6.53
2019-04-21T17:58:18.244Z,8.10
2019-04-21T18:01:10.117Z,7.40
2019-04-21T18:03:54.539Z,7.77
2019-04-21T18:06:22.082Z,6.60
2019-04-21T18:09:18.287Z,7.67
2019-04-21T18:11:51.395Z,6.83
2019-04-21T18:14:20.304Z,7.30
2019-04-21T18:17:00.470Z,7.10
2019-04-21T18:19:45.777Z,7.13
2019-04-21T18:22:47.438Z,8.50
2019-04-21T18:25:40.339Z,10.60
2019-04-21T18:28:10.570Z,12.63
2019-04-21T18:30:56.289Z,7.73
2019-04-21T18:33:42.303Z,9.37
2019-04-21T18:36:34.175Z,11.80
2019-04-21T18:39:46.495Z,18.30
2019-04-21T18:42:57.393Z,11.03
2019-04-21T18:46:11.739Z,9.07
2019-04-21T18:48:47.534Z,12.10
2019-04-21T18:51:54.801Z,8.40
2019-04-21T18:54:45.820Z,12.13
2019-04-21T18:57:24.348Z,12.93
2019-04-21T18:59:55.190Z,11.80
2019-04-21T19:02:43.931Z,13.57
2019-04-21T19:05:21.547Z,8.03
2019-04-21T19:08:14.669Z,10.10
2019-04-21T19:11:02.464Z,9.30
2019-04-21T19:16:47.577Z,10.13
2019-04-21T19:22:00.149Z,9.23
2019-04-21T19:24:54.894Z,10.17
2019-04-21T19:27:38.360Z,7.57
2019-04-21T19:30:38.576Z,10.93
2019-04-21T19:33:21.986Z,8.00
2019-04-21T19:35:43.370Z,6.90
2019-04-21T19:38:46.804Z,9.70
2019-04-21T19:41:36.840Z,9.37
2019-04-21T19:44:29.404Z,10.47
2019-04-21T19:47:25.666Z,6.20
2019-04-21T19:52:55.086Z,6.03
2019-04-21T19:55:36.177Z,6.90
2019-04-21T19:58:31.158Z,6.87
2019-04-21T20:01:14.134Z,6.67
2019-04-21T20:07:02.813Z,7.70
2019-04-21T20:10:06.610Z,12.20
2019-04-21T20:12:52.144Z,7.57
2019-04-21T20:15:45.915Z,7.63
2019-04-21T20:18:24.496Z,11.70
2019-04-21T20:21:05.957Z,5.80
2019-04-21T20:23:57.515Z,6.40
2019-04-21T20:26:54.709Z,11.40
2019-04-21T20:29:49.858Z,6.13
2019-04-21T20:32:42.999Z,7.20
2019-04-21T20:35:32.333Z,8.07
2019-04-21T20:38:02.270Z,10.33
2019-04-21T20:40:41.232Z,10.70
2019-04-21T20:43:38.085Z,13.70
2019-04-21T20:46:12.543Z,6.20
2019-04-21T20:48:52.424Z,8.73
2019-04-21T20:51:37.911Z,8.50
2019-04-21T20:54:25.776Z,9.27
2019-04-21T20:57:06.193Z,8.63
2019-04-21T20:59:43.843Z,8.30
2019-04-21T21:02:28.353Z,7.03
2019-04-21T21:05:04.946Z,8.40
2019-04-21T21:07:55.766Z,8.20
2019-04-21T21:10:37.236Z,11.73
2019-04-21T21:13:26.556Z,15.43
2019-04-21T21:16:20.060Z,11.20
2019-04-21T21:19:06.928Z,13.27
2019-04-21T21:21:29.642Z,8.50
2019-04-21T21:24:10.224Z,8.67
2019-04-21T21:26:54.931Z,8.13
2019-04-21T21:29:33.623Z,15.07
2019-04-21T21:32:20.883Z,8.67
2019-04-21T21:35:06.150Z,7.70
2019-04-21T21:37:48.984Z,15.57
2019-04-21T21:40:28.870Z,8.77
2019-04-21T21:42:55.218Z,8.03
2019-04-21T21:45:42.607Z,7.00
2019-04-21T21:48:32.082Z,8.93
2019-04-21T21:51:10.772Z,8.23
2019-04-21T21:53:45.750Z,8.43
2019-04-21T21:56:26.843Z,8.77
2019-04-21T21:59:15.977Z,9.37
2019-04-21T22:01:54.006Z,8.77
2019-04-21T22:04:36.101Z,9.70
2019-04-21T22:07:18.979Z,8.70
2019-04-21T22:10:00.067Z,9.90
2019-04-21T22:12:51.643Z,7.93
2019-04-21T22:15:26.822Z,7.87
2019-04-21T22:18:24.635Z,8.30
2019-04-21T22:21:03.547Z,9.00
2019-04-21T22:23:43.865Z,8.83
2019-04-21T22:26:15.467Z,8.83
2019-04-21T22:28:58.051Z,8.27
2019-04-21T22:31:40.770Z,7.90
2019-04-21T22:34:27.780Z,9.07
2019-04-21T22:37:23.212Z,7.93
2019-04-21T22:40:00.808Z,12.73
2019-04-21T22:42:35.122Z,14.03
2019-04-21T22:45:13.490Z,9.53
2019-04-21T22:47:58.723Z,11.43
2019-04-21T22:50:37.984Z,10.87
2019-04-21T22:53:19.763Z,9.50
2019-04-21T22:56:11.997Z,9.63
2019-04-21T22:58:46.537Z,9.87
2019-04-21T23:01:34.645Z,16.13
2019-04-21T23:04:12.000Z,12.10
2019-04-21T23:06:56.659Z,9.70
2019-04-21T23:09:37.054Z,11.23
2019-04-21T23:12:24.520Z,8.90
2019-04-21T23:15:06.463Z,11.70
2019-04-21T23:18:00.752Z,9.07
2019-04-21T23:20:43.604Z,11.43
2019-04-21T23:23:30.392Z,12.27
2019-04-21T23:26:04.675Z,11.90
2019-04-21T23:28:57.089Z,11.90
2019-04-21T23:31:35.569Z,14.30
2019-04-21T23:34:00.410Z,10.57
2019-04-21T23:36:51.859Z,15.37
2019-04-21T23:39:29.012Z,14.23
2019-04-21T23:42:06.646Z,13.03
2019-04-21T23:44:51.469Z,11.60
2019-04-21T23:47:42.758Z,18.97
2019-04-21T23:50:24.758Z,13.20
2019-04-21T23:52:55.704Z,15.77
2019-04-21T23:55:37.090Z,17.73
2019-04-21T23:58:22.180Z,18.47
